createdAt,value
2018-09-01T00:00:51.853Z,15.04
2018-09-01T00:03:20.069Z,15.10
2018-09-01T00:05:48.371Z,15.01
2018-09-01T00:08:16.522Z,14.84
2018-09-01T00:10:44.708Z,14.70
2018-09-01T00:13:13.953Z,14.66
2018-09-01T00:15:42.654Z,14.64
2018-09-01T00:18:10.916Z,14.68
2018-09-01T00:20:40.448Z,14.64
2018-09-01T00:23:08.660Z,14.65
2018-09-01T00:25:36.742Z,14.57
2018-09-01T00:28:05.595Z,14.58
2018-09-01T00:30:34.554Z,14.58
2018-09-01T00:33:04.425Z,14.51
2018-09-01T00:35:33.476Z,14.34
2018-09-01T00:38:07.616Z,14.29
2018-09-01T00:40:35.839Z,14.21
2018-09-01T00:43:04.199Z,14.15
2018-09-01T00:45:32.395Z,14.05
2018-09-01T00:48:00.634Z,14.06
2018-09-01T00:50:28.805Z,14.02
2018-09-01T00:52:57.059Z,14.03
2018-09-01T00:55:30.151Z,13.99
2018-09-01T00:57:58.711Z,13.96
2018-09-01T01:00:26.903Z,13.93
2018-09-01T01:02:55.994Z,13.89
2018-09-01T01:05:24.795Z,13.86
2018-09-01T01:07:52.969Z,13.80
2018-09-01T01:10:21.149Z,13.77
2018-09-01T01:12:49.581Z,13.77
2018-09-01T01:15:18.639Z,13.79
2018-09-01T01:17:47.001Z,13.71
2018-09-01T01:20:15.197Z,13.68
2018-09-01T01:22:43.374Z,13.77
2018-09-01T01:25:11.714Z,13.82
2018-09-01T01:27:39.951Z,13.85
2018-09-01T01:30:14.832Z,13.89
2018-09-01T01:32:43.307Z,13.94
2018-09-01T01:35:11.456Z,14.00
2018-09-01T01:37:39.872Z,14.02
2018-09-01T01:40:08.066Z,13.94
2018-09-01T01:42:37.286Z,14.00
2018-09-01T01:45:06.659Z,13.99
2018-09-01T01:47:38.904Z,13.99
2018-09-01T01:50:08.804Z,13.90
2018-09-01T01:52:37.194Z,13.76
2018-09-01T01:55:05.566Z,13.68
2018-09-01T01:57:38.318Z,13.60
2018-09-01T02:00:06.712Z,13.52
2018-09-01T02:02:35.710Z,13.52
2018-09-01T02:05:04.605Z,13.36
2018-09-01T02:07:32.925Z,13.35
2018-09-01T02:10:01.042Z,13.58
2018-09-01T02:12:29.375Z,13.43
2018-09-01T02:14:57.610Z,13.37
2018-09-01T02:17:25.866Z,13.28
2018-09-01T02:19:54.077Z,13.33
2018-09-01T02:22:22.280Z,13.32
2018-09-01T02:24:51.216Z,13.23
2018-09-01T02:27:20.141Z,13.16
2018-09-01T02:29:48.376Z,13.10
2018-09-01T02:32:16.524Z,13.09
2018-09-01T02:34:44.833Z,13.05
2018-09-01T02:37:13.048Z,13.00
2018-09-01T02:39:41.977Z,12.94
2018-09-01T02:42:10.793Z,12.92
2018-09-01T02:44:38.991Z,12.89
2018-09-01T02:47:07.913Z,12.86
2018-09-01T02:49:36.093Z,12.79
2018-09-01T02:52:05.521Z,12.79
2018-09-01T02:54:33.926Z,12.71
2018-09-01T02:57:02.179Z,12.72
2018-09-01T02:59:30.301Z,12.75
2018-09-01T03:01:58.561Z,12.70
2018-09-01T03:04:26.749Z,12.69
2018-09-01T03:06:57.547Z,12.68
2018-09-01T03:09:25.881Z,12.65
2018-09-01T03:11:55.379Z,12.56
2018-09-01T03:14:24.534Z,12.55
2018-09-01T03:16:53.853Z,12.53
2018-09-01T03:19:22.759Z,12.50
2018-09-01T03:21:50.953Z,12.49
2018-09-01T03:24:19.212Z,12.50
2018-09-01T03:26:47.527Z,12.49
2018-09-01T03:29:15.900Z,12.48
2018-09-01T03:31:45.699Z,12.54
2018-09-01T03:34:13.842Z,12.43
2018-09-01T03:36:42.700Z,12.45
2018-09-01T03:39:10.930Z,12.38
2018-09-01T03:41:39.483Z,12.38
2018-09-01T03:44:08.150Z,12.40
2018-09-01T03:46:37.948Z,12.43
2018-09-01T03:49:07.827Z,12.33
2018-09-01T03:51:36.789Z,12.29
2018-09-01T03:54:05.074Z,12.23
2018-09-01T03:56:33.242Z,12.24
2018-09-01T03:59:02.213Z,12.24
2018-09-01T04:01:30.472Z,12.29
2018-09-01T04:03:59.671Z,12.23
2018-09-01T04:06:27.840Z,12.17
2018-09-01T04:08:55.981Z,12.18
2018-09-01T04:11:24.396Z,12.16
2018-09-01T04:13:52.613Z,12.14
2018-09-01T04:16:20.796Z,12.11
2018-09-01T04:18:49.134Z,12.12
2018-09-01T04:21:18.073Z,12.09
2018-09-01T04:23:46.283Z,12.16
2018-09-01T04:26:14.509Z,12.12
2018-09-01T04:28:43.299Z,12.06
2018-09-01T04:31:11.459Z,12.07
2018-09-01T04:33:39.602Z,12.07
2018-09-01T04:36:08.549Z,12.06
2018-09-01T04:38:36.777Z,12.10
2018-09-01T04:41:05.078Z,12.06
2018-09-01T04:43:33.346Z,12.04
2018-09-01T04:46:02.511Z,12.05
2018-09-01T04:48:30.660Z,12.05
2018-09-01T04:50:58.851Z,12.06
2018-09-01T04:53:27.791Z,12.13
2018-09-01T04:55:56.036Z,12.14
2018-09-01T04:58:25.205Z,12.24
2018-09-01T05:00:53.481Z,12.40
2018-09-01T05:03:21.693Z,12.42
2018-09-01T05:05:50.004Z,12.59
2018-09-01T05:08:18.202Z,12.60
2018-09-01T05:10:47.074Z,12.68
2018-09-01T05:13:15.284Z,12.78
2018-09-01T05:15:43.656Z,12.77
2018-09-01T05:18:12.538Z,12.87
2018-09-01T05:20:40.764Z,12.92
2018-09-01T05:23:09.097Z,12.94
2018-09-01T05:25:38.524Z,12.90
2018-09-01T05:28:06.740Z,13.02
2018-09-01T05:30:35.076Z,13.00
2018-09-01T05:33:03.420Z,13.07
2018-09-01T05:35:31.804Z,13.17
2018-09-01T05:38:00.143Z,13.27
2018-09-01T05:40:29.142Z,13.48
2018-09-01T05:42:57.312Z,13.62
2018-09-01T05:45:25.592Z,13.71
2018-09-01T05:47:53.798Z,14.02
2018-09-01T05:50:22.022Z,14.23
2018-09-01T05:52:50.274Z,14.51
2018-09-01T05:55:18.457Z,14.56
2018-09-01T05:57:46.892Z,15.02
2018-09-01T06:00:19.642Z,15.23
2018-09-01T06:02:50.639Z,15.29
2018-09-01T06:05:18.870Z,15.08
2018-09-01T06:07:48.215Z,15.00
2018-09-01T06:10:16.480Z,14.96
2018-09-01T06:12:44.876Z,14.74
2018-09-01T06:15:13.250Z,14.76
2018-09-01T06:17:41.637Z,14.86
2018-09-01T06:20:09.743Z,14.72
2018-09-01T06:22:38.101Z,14.79
2018-09-01T06:25:06.473Z,14.85
2018-09-01T06:27:41.135Z,14.71
2018-09-01T06:30:13.953Z,14.57
2018-09-01T06:32:42.349Z,14.54
2018-09-01T06:35:10.549Z,14.50
2018-09-01T06:37:38.777Z,14.77
2018-09-01T06:40:07.235Z,14.93
2018-09-01T06:42:35.555Z,15.09
2018-09-01T06:45:03.786Z,15.53
2018-09-01T06:47:32.541Z,15.90
2018-09-01T06:50:01.294Z,16.32
2018-09-01T06:52:29.453Z,16.65
2018-09-01T06:54:57.711Z,16.95
2018-09-01T06:57:25.833Z,17.08
2018-09-01T06:59:54.028Z,17.06
2018-09-01T07:02:22.467Z,17.12
2018-09-01T07:04:50.720Z,17.13
2018-09-01T07:07:18.926Z,16.87
2018-09-01T07:09:47.109Z,16.53
2018-09-01T07:12:15.364Z,16.48
2018-09-01T07:14:43.607Z,16.29
2018-09-01T07:17:11.990Z,16.39
2018-09-01T07:19:40.213Z,16.48
2018-09-01T07:22:08.420Z,16.52
2018-09-01T07:24:36.717Z,16.64
2018-09-01T07:27:05.056Z,16.98
2018-09-01T07:29:33.288Z,17.11
2018-09-01T07:32:01.476Z,17.48
2018-09-01T07:34:29.710Z,17.95
2018-09-01T07:36:58.496Z,18.28
2018-09-01T07:39:26.658Z,18.39
2018-09-01T07:41:54.840Z,19.02
2018-09-01T07:44:22.993Z,19.35
2018-09-01T07:46:51.218Z,19.90
2018-09-01T07:49:19.415Z,20.71
2018-09-01T07:51:47.799Z,22.05
2018-09-01T07:54:16.009Z,25.10
2018-09-01T07:56:44.235Z,29.04
2018-09-01T07:59:12.477Z,31.44
2018-09-01T08:01:40.685Z,33.63
2018-09-01T08:04:09.077Z,35.29
2018-09-01T08:06:37.177Z,37.49
2018-09-01T08:09:07.759Z,36.66
2018-09-01T08:11:36.473Z,37.13
2018-09-01T08:14:04.745Z,35.32
2018-09-01T08:16:32.777Z,35.98
2018-09-01T08:19:00.950Z,36.48
2018-09-01T08:21:30.079Z,36.30
2018-09-01T08:23:58.179Z,36.88
2018-09-01T08:26:26.344Z,37.52
2018-09-01T08:28:54.473Z,35.68
2018-09-01T08:31:22.642Z,37.97
2018-09-01T08:33:50.907Z,38.43
2018-09-01T08:36:19.420Z,39.85
2018-09-01T08:38:49.337Z,38.94
2018-09-01T08:41:17.587Z,40.26
2018-09-01T08:43:45.804Z,42.78
2018-09-01T08:46:14.046Z,44.43
2018-09-01T08:48:48.943Z,41.97
2018-09-01T08:51:17.144Z,41.27
2018-09-01T08:53:45.299Z,42.39
2018-09-01T08:56:13.465Z,43.64
2018-09-01T08:58:41.769Z,40.96
2018-09-01T09:01:09.994Z,42.41
2018-09-01T09:03:38.124Z,42.93
2018-09-01T09:06:06.365Z,43.70
2018-09-01T09:08:34.657Z,41.97
2018-09-01T09:11:02.832Z,41.46
2018-09-01T09:13:31.004Z,39.86
2018-09-01T09:15:59.120Z,37.29
2018-09-01T09:18:27.316Z,35.22
2018-09-01T09:20:55.489Z,35.12
2018-09-01T09:23:23.701Z,35.69
2018-09-01T09:25:51.987Z,37.64
2018-09-01T09:28:20.663Z,38.89
2018-09-01T09:30:49.530Z,35.17
2018-09-01T09:33:17.819Z,31.76
2018-09-01T09:35:46.361Z,32.19
2018-09-01T09:38:14.730Z,35.48
2018-09-01T09:40:43.068Z,39.10
2018-09-01T09:43:11.389Z,39.29
2018-09-01T09:45:39.634Z,34.82
2018-09-01T09:48:07.801Z,32.25
2018-09-01T09:50:35.888Z,31.70
2018-09-01T09:53:04.546Z,33.84
2018-09-01T09:55:32.636Z,37.26
2018-09-01T09:58:00.778Z,37.62
2018-09-01T10:00:34.664Z,38.70
2018-09-01T10:03:02.852Z,34.94
2018-09-01T10:05:31.093Z,35.87
2018-09-01T10:07:59.348Z,38.28
2018-09-01T10:10:27.542Z,40.25
2018-09-01T10:12:55.724Z,43.79
2018-09-01T10:15:23.971Z,43.03
2018-09-01T10:17:58.763Z,41.77
2018-09-01T10:20:27.022Z,42.12
2018-09-01T10:22:55.252Z,42.14
2018-09-01T10:25:23.392Z,41.22
2018-09-01T10:27:51.493Z,40.04
2018-09-01T10:30:19.613Z,37.97
2018-09-01T10:32:47.898Z,38.54
2018-09-01T10:35:16.011Z,40.22
2018-09-01T10:37:44.293Z,43.43
2018-09-01T10:40:12.471Z,45.11
2018-09-01T10:42:40.808Z,48.42
2018-09-01T10:45:09.065Z,46.62
2018-09-01T10:47:37.177Z,44.53
2018-09-01T10:50:05.427Z,43.04
2018-09-01T10:52:33.750Z,41.53
2018-09-01T10:55:02.071Z,44.05
2018-09-01T10:57:30.411Z,43.25
2018-09-01T10:59:58.680Z,43.12
2018-09-01T11:02:27.029Z,40.71
2018-09-01T11:04:55.255Z,38.82
2018-09-01T11:07:23.961Z,35.12
2018-09-01T11:09:52.071Z,35.41
2018-09-01T11:12:20.554Z,35.37
2018-09-01T11:14:48.713Z,34.08
2018-09-01T11:17:17.655Z,32.91
2018-09-01T11:19:46.915Z,33.49
2018-09-01T11:22:15.419Z,32.38
2018-09-01T11:24:43.571Z,33.10
2018-09-01T11:27:11.804Z,33.25
2018-09-01T11:29:39.955Z,34.03
2018-09-01T11:32:08.157Z,36.43
2018-09-01T11:34:36.329Z,34.93
2018-09-01T11:37:04.561Z,34.99
2018-09-01T11:39:32.805Z,35.79
2018-09-01T11:42:01.099Z,40.82
2018-09-01T11:44:29.344Z,42.09
2018-09-01T11:46:57.545Z,41.31
2018-09-01T11:49:25.756Z,42.67
2018-09-01T11:51:54.049Z,43.03
2018-09-01T11:54:22.303Z,44.01
2018-09-01T11:56:50.520Z,40.57
2018-09-01T11:59:18.754Z,39.12
2018-09-01T12:01:46.957Z,38.15
2018-09-01T12:04:15.291Z,37.16
2018-09-01T12:06:43.696Z,36.14
2018-09-01T12:09:12.219Z,36.20
2018-09-01T12:11:40.485Z,35.99
2018-09-01T12:14:08.669Z,36.34
2018-09-01T12:16:36.878Z,36.33
2018-09-01T12:19:05.183Z,35.99
2018-09-01T12:21:33.373Z,39.19
2018-09-01T12:24:01.649Z,40.60
2018-09-01T12:26:29.925Z,39.71
2018-09-01T12:28:58.086Z,39.05
2018-09-01T12:31:26.363Z,38.03
2018-09-01T12:33:55.321Z,36.78
2018-09-01T12:36:24.260Z,37.37
2018-09-01T12:38:52.437Z,35.50
2018-09-01T12:41:20.662Z,34.84
2018-09-01T12:43:48.765Z,32.99
2018-09-01T12:46:17.025Z,33.00
2018-09-01T12:48:45.217Z,32.63
2018-09-01T12:51:13.394Z,32.01
2018-09-01T12:53:41.751Z,32.18
2018-09-01T12:56:10.070Z,30.78
2018-09-01T12:58:38.741Z,31.26
2018-09-01T13:01:07.376Z,32.18
2018-09-01T13:03:35.636Z,31.40
2018-09-01T13:06:03.894Z,30.87
2018-09-01T13:08:32.153Z,30.24
2018-09-01T13:11:00.388Z,31.34
2018-09-01T13:13:28.721Z,32.19
2018-09-01T13:15:56.904Z,31.37
2018-09-01T13:18:25.134Z,30.84
2018-09-01T13:20:53.400Z,29.33
2018-09-01T13:23:21.645Z,28.44
2018-09-01T13:25:49.905Z,28.93
2018-09-01T13:28:18.231Z,29.15
2018-09-01T13:30:46.397Z,28.90
2018-09-01T13:33:14.634Z,28.29
2018-09-01T13:35:42.851Z,27.54
2018-09-01T13:38:11.204Z,27.45
2018-09-01T13:40:39.576Z,26.79
2018-09-01T13:43:07.716Z,26.94
2018-09-01T13:45:35.880Z,26.95
2018-09-01T13:48:04.234Z,26.13
2018-09-01T13:50:32.468Z,26.22
2018-09-01T13:53:00.924Z,26.48
2018-09-01T13:55:29.969Z,26.11
2018-09-01T13:57:59.912Z,26.25
2018-09-01T14:00:28.125Z,25.94
2018-09-01T14:02:56.246Z,26.26
2018-09-01T14:05:24.323Z,27.54
2018-09-01T14:07:52.510Z,27.28
2018-09-01T14:10:20.712Z,26.77
2018-09-01T14:12:48.981Z,26.61
2018-09-01T14:15:17.099Z,26.30
2018-09-01T14:17:45.382Z,25.73
2018-09-01T14:20:13.661Z,26.13
2018-09-01T14:22:41.928Z,25.89
2018-09-01T14:25:10.112Z,25.38
2018-09-01T14:27:38.335Z,24.86
2018-09-01T14:30:07.398Z,24.76
2018-09-01T14:32:36.009Z,24.62
2018-09-01T14:35:05.483Z,24.83
2018-09-01T14:37:33.776Z,24.68
2018-09-01T14:40:02.823Z,24.50
2018-09-01T14:42:31.031Z,24.46
2018-09-01T14:44:59.606Z,24.37
2018-09-01T14:47:27.965Z,24.34
2018-09-01T14:49:56.115Z,23.94
2018-09-01T14:52:24.428Z,23.97
2018-09-01T14:54:52.653Z,23.85
2018-09-01T14:57:20.880Z,23.87
2018-09-01T14:59:49.575Z,23.85
2018-09-01T15:02:18.799Z,23.85
2018-09-01T15:04:46.986Z,23.72
2018-09-01T15:07:15.202Z,23.63
2018-09-01T15:09:43.565Z,23.73
2018-09-01T15:12:11.759Z,23.60
2018-09-01T15:14:39.959Z,23.55
2018-09-01T15:17:08.048Z,23.45
2018-09-01T15:19:36.455Z,23.42
2018-09-01T15:22:04.638Z,23.10
2018-09-01T15:24:32.815Z,22.71
2018-09-01T15:27:00.983Z,22.72
2018-09-01T15:29:29.164Z,22.76
2018-09-01T15:31:57.416Z,22.97
2018-09-01T15:34:25.572Z,22.87
2018-09-01T15:36:54.495Z,22.75
2018-09-01T15:39:22.872Z,22.78
2018-09-01T15:41:51.191Z,22.74
2018-09-01T15:44:19.425Z,22.79
2018-09-01T15:46:47.615Z,22.72
2018-09-01T15:49:15.926Z,22.63
2018-09-01T15:51:44.085Z,22.42
2018-09-01T15:54:12.277Z,22.23
2018-09-01T15:56:41.120Z,22.10
2018-09-01T15:59:09.312Z,22.25
2018-09-01T16:01:38.190Z,22.22
2018-09-01T16:04:06.424Z,22.30
2018-09-01T16:06:36.738Z,22.32
2018-09-01T16:09:05.960Z,22.34
2018-09-01T16:11:34.330Z,22.10
2018-09-01T16:14:03.968Z,22.10
2018-09-01T16:16:32.432Z,22.10
2018-09-01T16:19:00.796Z,21.91
2018-09-01T16:21:29.080Z,21.90
2018-09-01T16:23:57.334Z,21.78
2018-09-01T16:26:26.478Z,21.59
2018-09-01T16:29:02.584Z,21.45
2018-09-01T16:31:30.784Z,21.47
2018-09-01T16:33:58.983Z,21.63
2018-09-01T16:36:27.184Z,21.63
2018-09-01T16:38:55.746Z,21.71
2018-09-01T16:41:32.618Z,21.55
2018-09-01T16:44:00.965Z,21.52
2018-09-01T16:46:29.241Z,21.49
2018-09-01T16:48:57.679Z,21.43
2018-09-01T16:51:25.915Z,21.32
2018-09-01T16:53:54.110Z,21.44
2018-09-01T16:56:22.421Z,21.39
2018-09-01T16:58:50.647Z,21.34
2018-09-01T17:01:18.841Z,21.23
2018-09-01T17:03:47.080Z,20.98
2018-09-01T17:06:15.327Z,21.11
2018-09-01T17:08:43.597Z,20.86
2018-09-01T17:11:11.990Z,21.02
2018-09-01T17:13:40.114Z,21.14
2018-09-01T17:16:08.537Z,21.03
2018-09-01T17:18:36.893Z,20.95
2018-09-01T17:21:11.960Z,20.83
2018-09-01T17:23:40.049Z,20.81
2018-09-01T17:26:08.236Z,20.77
2018-09-01T17:28:36.515Z,20.66
2018-09-01T17:31:04.978Z,20.67
2018-09-01T17:33:33.254Z,20.53
2018-09-01T17:36:01.348Z,20.34
2018-09-01T17:38:29.466Z,20.33
2018-09-01T17:40:57.688Z,20.41
2018-09-01T17:43:25.930Z,20.42
2018-09-01T17:45:54.170Z,20.41
2018-09-01T17:48:22.437Z,20.40
2018-09-01T17:50:50.671Z,20.46
2018-09-01T17:53:18.886Z,20.42
2018-09-01T17:55:47.084Z,20.52
2018-09-01T17:58:15.244Z,20.55
2018-09-01T18:00:43.432Z,20.57
2018-09-01T18:03:12.305Z,20.51
2018-09-01T18:05:40.468Z,20.27
2018-09-01T18:08:08.892Z,20.27
2018-09-01T18:10:37.153Z,20.34
2018-09-01T18:13:05.497Z,20.33
2018-09-01T18:15:33.693Z,20.29
2018-09-01T18:18:02.336Z,20.32
2018-09-01T18:20:37.464Z,20.29
2018-09-01T18:23:05.718Z,20.21
2018-09-01T18:25:33.836Z,20.22
2018-09-01T18:28:03.039Z,20.22
2018-09-01T18:30:31.378Z,20.22
2018-09-01T18:32:59.609Z,20.14
2018-09-01T18:35:27.886Z,20.15
2018-09-01T18:37:56.004Z,20.20
2018-09-01T18:40:24.298Z,20.12
2018-09-01T18:42:52.445Z,20.17
2018-09-01T18:45:21.305Z,20.19
2018-09-01T18:47:49.543Z,20.02
2018-09-01T18:50:17.757Z,19.85
2018-09-01T18:52:45.993Z,20.03
2018-09-01T18:55:14.624Z,20.16
2018-09-01T18:57:43.086Z,20.05
2018-09-01T19:00:11.326Z,19.77
2018-09-01T19:02:39.622Z,19.76
2018-09-01T19:05:08.611Z,19.84
2018-09-01T19:07:37.599Z,19.81
2018-09-01T19:10:05.883Z,19.56
2018-09-01T19:12:34.076Z,19.62
2018-09-01T19:15:02.208Z,19.78
2018-09-01T19:17:31.241Z,19.65
2018-09-01T19:20:00.107Z,19.79
2018-09-01T19:22:31.903Z,19.49
2018-09-01T19:25:01.461Z,19.30
2018-09-01T19:27:30.345Z,19.35
2018-09-01T19:29:59.376Z,19.44
2018-09-01T19:32:27.877Z,19.57
2018-09-01T19:34:56.088Z,19.55
2018-09-01T19:37:24.278Z,19.59
2018-09-01T19:39:52.645Z,19.60
2018-09-01T19:42:20.834Z,19.50
2018-09-01T19:44:49.372Z,19.54
2018-09-01T19:47:17.395Z,19.45
2018-09-01T19:49:45.847Z,19.54
2018-09-01T19:52:13.954Z,19.55
2018-09-01T19:54:42.083Z,19.35
2018-09-01T19:57:10.309Z,19.43
2018-09-01T19:59:38.800Z,19.39
2018-09-01T20:02:07.043Z,19.36
2018-09-01T20:04:35.423Z,19.29
2018-09-01T20:07:03.742Z,19.38
2018-09-01T20:09:32.090Z,19.31
2018-09-01T20:12:00.276Z,19.25
2018-09-01T20:14:28.558Z,19.08
2018-09-01T20:16:56.820Z,18.95
2018-09-01T20:19:24.990Z,18.97
2018-09-01T20:21:53.212Z,19.06
2018-09-01T20:24:21.456Z,19.17
2018-09-01T20:26:49.775Z,19.16
2018-09-01T20:29:17.934Z,19.12
2018-09-01T20:31:46.152Z,19.21
2018-09-01T20:34:15.077Z,19.22
2018-09-01T20:36:43.314Z,19.24
2018-09-01T20:39:11.493Z,19.22
2018-09-01T20:41:39.643Z,19.20
2018-09-01T20:44:08.329Z,19.25
2018-09-01T20:46:36.572Z,19.27
2018-09-01T20:49:05.661Z,19.28
2018-09-01T20:51:33.855Z,19.27
2018-09-01T20:54:02.030Z,19.16
2018-09-01T20:56:30.309Z,19.19
2018-09-01T20:58:58.507Z,19.18
2018-09-01T21:01:26.704Z,19.15
2018-09-01T21:03:54.923Z,19.22
2018-09-01T21:06:23.282Z,19.24
2018-09-01T21:08:51.370Z,19.21
2018-09-01T21:11:19.677Z,19.15
2018-09-01T21:13:47.889Z,19.03
2018-09-01T21:16:16.228Z,18.97
2018-09-01T21:18:44.450Z,18.97
2018-09-01T21:21:12.719Z,18.71
2018-09-01T21:23:40.942Z,18.69
2018-09-01T21:26:09.185Z,18.51
2018-09-01T21:28:37.379Z,18.56
2018-09-01T21:31:05.644Z,18.60
2018-09-01T21:33:33.850Z,18.76
2018-09-01T21:36:02.118Z,18.80
2018-09-01T21:38:30.595Z,18.80
2018-09-01T21:40:58.791Z,18.79
2018-09-01T21:43:27.367Z,18.87
2018-09-01T21:45:55.542Z,18.78
2018-09-01T21:48:23.672Z,18.73
2018-09-01T21:50:51.839Z,18.74
2018-09-01T21:53:19.955Z,18.72
2018-09-01T21:55:48.294Z,18.58
2018-09-01T21:58:16.524Z,18.48
2018-09-01T22:00:50.486Z,18.25
2018-09-01T22:03:19.986Z,18.25
2018-09-01T22:05:49.056Z,18.30
2018-09-01T22:08:17.348Z,18.26
2018-09-01T22:10:45.484Z,18.30
2018-09-01T22:13:13.685Z,18.35
2018-09-01T22:15:41.824Z,18.38
2018-09-01T22:18:09.985Z,18.38
2018-09-01T22:20:38.257Z,18.44
2018-09-01T22:23:06.431Z,18.46
2018-09-01T22:25:34.530Z,18.47
2018-09-01T22:28:02.734Z,18.46
2018-09-01T22:30:31.232Z,18.51
2018-09-01T22:32:59.365Z,18.51
2018-09-01T22:35:27.568Z,18.54
2018-09-01T22:37:55.728Z,18.52
2018-09-01T22:40:24.515Z,18.48
2018-09-01T22:42:52.641Z,18.50
2018-09-01T22:45:20.943Z,18.55
2018-09-01T22:47:49.144Z,18.51
2018-09-01T22:50:18.288Z,18.54
2018-09-01T22:52:46.463Z,18.48
2018-09-01T22:55:14.642Z,18.49
2018-09-01T22:57:42.882Z,18.45
2018-09-01T23:00:11.197Z,18.49
2018-09-01T23:02:39.488Z,18.41
2018-09-01T23:05:07.641Z,18.27
2018-09-01T23:07:36.732Z,18.27
2018-09-01T23:10:05.069Z,18.35
2018-09-01T23:12:33.978Z,18.31
2018-09-01T23:15:02.161Z,18.30
2018-09-01T23:17:30.425Z,18.28
2018-09-01T23:19:58.719Z,18.20
2018-09-01T23:22:26.931Z,18.21
2018-09-01T23:24:55.109Z,18.21
2018-09-01T23:27:23.301Z,18.16
2018-09-01T23:29:51.497Z,18.06
2018-09-01T23:32:19.883Z,18.20
2018-09-01T23:34:49.021Z,18.12
2018-09-01T23:37:17.222Z,18.19
2018-09-01T23:39:45.385Z,18.15
2018-09-01T23:42:13.601Z,18.15
2018-09-01T23:44:41.759Z,18.21
2018-09-01T23:47:10.708Z,18.20
2018-09-01T23:49:38.909Z,18.18
2018-09-01T23:52:07.223Z,18.12
2018-09-01T23:54:35.421Z,18.03
2018-09-01T23:57:03.964Z,18.06
2018-09-01T23:59:32.107Z,18.08
